ADDS METAR Data INFO
IDs: Format: Raw Decoded Include TAF

Data at: 0732 UTC 18 Oct 2017

PASL 180556Z AUTO 00000KT 10SM OVC039 M02/M04 A2950 RMK AO2 SLP988 T10171044 10017 21022 53011 FZRANO
PASL 180356Z AUTO 00000KT 10SM CLR M01/M05 A2948 RMK AO2 SLP980 T10111050 FZRANO
PASL 180056Z AUTO VRB04KT 10SM BKN033 01/M06 A2946 RMK AO2 SLP973 T00061061 FZRANO
PASL 172256Z AUTO VRB03KT 10SM OVC035 02/M06 A2947 RMK AO2 SLP977 T00171056 FZRANO
PASL 171956Z AUTO VRB04KT 10SM CLR 01/M06 A2948 RMK AO2 SLP980 T00061061 FZRANO
PASL 171856Z AUTO VRB03KT 10SM CLR 01/M05 A2948 RMK AO2 SLP981 T00111050 FZRANO
PASL 171556Z AUTO 00000KT 10SM OVC037 M01/M02 A2951 RMK AO2 SLP991 T10111017 FZRANO
PASL 171456Z AUTO 00000KT 10SM OVC037 M01/M02 A2953 RMK AO2 SLP996 T10111017 56016 FZRANO
PASL 171056Z AUTO 00000KT 10SM FEW004 OVC039 M01/M01 A2960 RMK AO2 SLP021 T10061011 FZRANO
PASL 170956Z AUTO 00000KT 10SM OVC039 M01/M01 A2962 RMK AO2 SLP028 T10061011 FZRANO
PASL 170823Z AUTO 00000KT 10SM BKN010 OVC040 M01/M01 A2965 RMK AO2 FZRANO
PASL 170656Z AUTO 00000KT 10SM OVC008 00/M01 A2966 RMK AO2 SLP040 T00001006 FZRANO
PASL 170631Z AUTO 00000KT 10SM BKN008 OVC039 00/M01 A2967 RMK AO2 FZRANO
PASL 170556Z AUTO 00000KT 10SM FEW006 OVC035 00/M01 A2967 RMK AO2 SLP044 60001 T00001006 10011 21006 58008 FZRANO
PASL 170532Z AUTO 00000KT 10SM SCT006 BKN037 OVC049 00/M01 A2967 RMK AO2 FZRANO
PASL 170456Z AUTO 00000KT 10SM OVC008 00/M01 A2968 RMK AO2 SLP048 T00001006 FZRANO
PASL 170427Z AUTO 00000KT 10SM BKN008 OVC041 00/M01 A2969 RMK AO2 FZRANO
PASL 170256Z AUTO 13003KT 10SM FEW004 BKN008 OVC050 01/00 A2970 RMK AO2 SLP053 60001 T00060000 57006 FZRANO
PASL 170209Z AUTO 00000KT 10SM FEW004 OVC048 01/00 A2970 RMK AO2 FZRANO
PASL 170156Z AUTO 00000KT 10SM SCT011 SCT028 OVC050 01/00 A2970 RMK AO2 UPE0057RAB0057E56 SLP056 P0000 T00110000 FZRANO
PASL 170051Z AUTO 00000KT 7SM UP SCT005 OVC034 01/00 A2971 RMK AO2 P0001 FZRANO
PASL 170013Z AUTO 00000KT 3SM UP BR SCT007 BKN011 OVC035 01/M01 A2972 RMK AO2 P0000 FZRANO
PASL 162347Z AUTO 15003KT 10SM UP FEW024 OVC031 01/M01 A2972 RMK AO2 P0000 FZRANO
PASL 162309Z AUTO 20003KT 5SM UP BR SCT009 BKN023 OVC033 01/M01 A2972 RMK AO2 P0000 FZRANO
PASL 162227Z AUTO 18003KT 10SM -RA FEW008 BKN028 OVC033 01/M01 A2972 RMK AO2 P0000 FZRANO
PASL 162207Z AUTO 00000KT 10SM -RA SCT008 BKN022 OVC035 01/00 A2972 RMK AO2 P0000 FZRANO
PASL 162156Z AUTO 00000KT 10SM -RA FEW008 SCT011 OVC035 01/00 A2972 RMK AO2 SLP063 P0000 T00110000 FZRANO
PASL 162029Z AUTO 00000KT 7SM UP BKN006 OVC026 01/00 A2972 RMK AO2 RAB12E26 P0000 FZRANO